Bloomington, Minnesota
Current Conditions -  °F | °C
As of 12:53 AM on Friday 31 Oct 2014 (Local Time) from KMSP Reporting Station
Clear Clear  
Wind Chill: 20°   Ceiling: Unl
Heat Index: 31°   Visibility: 10mi
Dew Point: 14°   Wind: 16mph
Humidity: 50%   Direction: 340°NNW
Pressure: 30.39"   Gusts: 25mph
Location:  44.82°N, 93.31°W
Report Text: KMSP 310553Z 34014G22KT 10SM CLR M01/M10 A3039 RMK AO2 PK WND 35027/0513 SLP298 T10061100 10061 21006 400941006 51029
Loading
Personal Weather Stations






























Interactive Weather Map
Tropical Storm Tracking
New forecast layout! Learn more

10-Day Weather Forecast

Advertisements
Track Severe Weather on mobile